Time;durP1;ratioP1;P1;durP2;ratioP2;P2;SDS_P1;SDS_P2;PMS_P1;PMS_P2;Temp;Humidity;BMP_temperature;BMP_pressure;BME280_temperature;BME280_humidity;BME280_pressure;Samples;Min_cycle;Max_cycle;Signal;HPM_P1;HPM_P2
2021/08/28 00:02:19;;;;;;;5.72;2.42;;;;;;;17.84;50.05;98641.22;5114177;28;20524;-50
2021/08/28 00:04:45;;;;;;;8.38;2.38;;;;;;;17.80;49.97;98646.19;5095793;28;20049;-50
2021/08/28 00:07:11;;;;;;;5.15;1.88;;;;;;;17.72;50.24;98642.09;5114094;28;20024;-50
2021/08/28 00:09:37;;;;;;;6.38;2.30;;;;;;;17.68;50.38;98634.91;5114085;28;20020;-49
2021/08/28 00:12:02;;;;;;;6.60;2.40;;;;;;;17.57;50.63;98641.94;5095666;28;20054;-49
2021/08/28 00:14:28;;;;;;;15.73;3.03;;;;;;;17.50;50.94;98633.34;5113717;28;20065;-50
2021/08/28 00:16:54;;;;;;;8.15;2.80;;;;;;;17.44;51.41;98629.81;5113950;28;20024;-50
2021/08/28 00:19:20;;;;;;;7.80;2.55;;;;;;;17.50;51.16;98626.19;5113887;28;20020;-50
2021/08/28 00:21:45;;;;;;;5.20;2.00;;;;;;;17.63;51.04;98638.31;5095494;28;20016;-50
2021/08/28 00:24:12;;;;;;;6.43;2.83;;;;;;;17.85;50.69;98627.69;5113793;28;20055;-50
2021/08/28 00:26:39;;;;;;;9.30;2.47;;;;;;;17.91;50.36;98634.66;5113669;28;20016;-50
2021/08/28 00:29:06;;;;;;;6.68;2.00;;;;;;;17.86;50.30;98629.28;5113668;28;20062;-50
2021/08/28 00:31:32;;;;;;;27.27;19.48;;;;;;;17.94;50.30;98628.03;5113629;28;20570;-50
2021/08/28 00:33:58;;;;;;;9.43;3.08;;;;;;;18.01;50.37;98623.34;5113624;28;20103;-50
2021/08/28 00:36:23;;;;;;;10.63;2.53;;;;;;;18.01;50.49;98622.53;5113526;28;20026;-50
2021/08/28 00:38:49;;;;;;;33.28;13.43;;;;;;;18.15;49.82;98623.75;5113538;28;20028;-50
2021/08/28 00:41:15;;;;;;;23.77;9.43;;;;;;;18.16;49.97;98620.03;5113479;28;20019;-50
2021/08/28 00:43:41;;;;;;;11.30;4.55;;;;;;;18.15;50.00;98626.41;5095035;28;20072;-49
2021/08/28 00:46:07;;;;;;;6.20;2.45;;;;;;;18.20;50.07;98620.34;5094962;28;20397;-50
2021/08/28 00:48:36;;;;;;;7.55;2.28;;;;;;;18.29;49.51;98627.59;5095003;28;20055;-50
2021/08/28 00:51:02;;;;;;;10.68;2.55;;;;;;;18.20;49.83;98626.44;5094976;28;20024;-50
2021/08/28 00:53:28;;;;;;;47.13;42.17;;;;;;;18.14;50.00;98624.78;5094887;28;20578;-50
2021/08/28 00:55:53;;;;;;;15.07;6.05;;;;;;;18.02;49.86;98624.94;5112743;28;20046;-50
2021/08/28 00:58:20;;;;;;;8.57;2.45;;;;;;;17.83;50.42;98627.16;5094787;28;20027;-49
2021/08/28 01:00:59;;;;;;;10.85;3.35;;;;;;;17.68;51.01;98626.94;5113061;28;20068;-50
2021/08/28 01:03:27;;;;;;;18.92;11.93;;;;;;;17.48;51.42;98624.84;5113110;28;20035;-50
2021/08/28 01:06:07;;;;;;;11.68;3.35;;;;;;;17.34;51.77;98633.19;5112905;28;20016;-50
2021/08/28 01:08:46;;;;;;;10.02;2.80;;;;;;;17.32;51.96;98629.94;5112984;28;20032;-52
2021/08/28 01:11:25;;;;;;;16.80;3.42;;;;;;;17.31;52.02;98628.34;5112896;28;20020;-51
2021/08/28 01:13:58;;;;;;;7.38;2.95;;;;;;;17.23;52.15;98634.06;5112605;28;20048;-52
2021/08/28 01:16:27;;;;;;;7.22;2.70;;;;;;;17.16;52.42;98625.47;5112860;28;20024;-51
2021/08/28 01:18:56;;;;;;;13.77;2.88;;;;;;;17.13;52.48;98628.63;5112846;28;20453;-52
2021/08/28 01:21:28;;;;;;;10.23;3.05;;;;;;;17.16;52.73;98631.59;5094423;28;20024;-51
2021/08/28 01:23:55;;;;;;;7.97;2.75;;;;;;;17.23;52.50;98626.13;5094505;28;20115;-51
2021/08/28 01:26:23;;;;;;;6.95;3.15;;;;;;;17.22;52.24;98623.69;5112580;28;20024;-52
2021/08/28 01:29:19;;;;;;;8.60;2.60;;;;;;;17.09;52.75;98624.88;5112623;28;20026;-51
2021/08/28 01:31:47;;;;;;;8.48;2.80;;;;;;;17.12;52.78;98622.53;5087811;28;20035;-52
2021/08/28 01:34:15;;;;;;;6.10;2.97;;;;;;;17.10;52.76;98623.81;5112495;28;20386;-52
2021/08/28 01:36:42;;;;;;;11.40;3.53;;;;;;;17.10;52.76;98626.47;5112472;28;20024;-52
2021/08/28 01:39:10;;;;;;;5.78;2.58;;;;;;;17.12;52.68;98627.03;5094176;28;20110;-52
2021/08/28 01:41:38;;;;;;;11.57;2.40;;;;;;;17.02;52.88;98634.84;5112445;28;20062;-51
2021/08/28 01:44:11;;;;;;;8.98;3.42;;;;;;;16.86;53.33;98633.81;5112416;28;20058;-52
2021/08/28 01:46:38;;;;;;;10.02;3.30;;;;;;;16.84;53.53;98626.13;5112376;28;20076;-51
2021/08/28 01:49:05;;;;;;;12.65;2.50;;;;;;;16.84;53.40;98634.06;5094017;28;20446;-51
2021/08/28 01:51:31;;;;;;;18.55;7.22;;;;;;;16.75;53.69;98623.03;5093991;28;20085;-52
2021/08/28 01:53:57;;;;;;;11.45;2.83;;;;;;;16.67;53.75;98620.78;5112273;28;20019;-52
2021/08/28 01:56:24;;;;;;;6.35;2.70;;;;;;;16.62;54.36;98630.47;5112439;28;20109;-52
2021/08/28 01:58:50;;;;;;;10.13;3.60;;;;;;;16.65;54.21;98622.88;5112250;28;20405;-52
2021/08/28 02:01:16;;;;;;;16.50;2.55;;;;;;;16.62;54.29;98617.25;5093869;28;20508;-52
2021/08/28 02:03:42;;;;;;;6.43;2.95;;;;;;;16.71;54.40;98626.41;5093931;28;20016;-51
2021/08/28 02:06:13;;;;;;;12.52;2.78;;;;;;;16.72;54.19;98622.69;5112047;28;20027;-51
2021/08/28 02:08:49;;;;;;;14.32;2.33;;;;;;;16.63;54.22;98624.94;5116791;28;20089;-52
2021/08/28 02:11:23;;;;;;;9.25;2.35;;;;;;;16.54;54.43;98618.44;5116797;28;20492;-52
2021/08/28 02:13:58;;;;;;;6.60;2.47;;;;;;;16.45;54.86;98622.53;5097813;28;20052;-51
2021/08/28 02:16:31;;;;;;;8.38;2.00;;;;;;;16.55;54.85;98614.75;5116382;28;20042;-52
2021/08/28 02:19:04;;;;;;;12.35;2.80;;;;;;;16.55;54.55;98623.50;5116356;28;20027;-52
2021/08/28 02:21:33;;;;;;;11.52;2.63;;;;;;;16.40;54.94;98628.56;5116188;28;20055;-52
2021/08/28 02:24:10;;;;;;;7.57;2.55;;;;;;;16.33;55.49;98630.56;5116125;28;20055;-52
2021/08/28 02:27:04;;;;;;;16.60;14.48;;;;;;;16.25;55.58;98628.28;5116073;28;20065;-52
2021/08/28 02:29:36;;;;;;;6.93;2.60;;;;;;;16.12;55.79;98634.69;5116112;28;20058;-52
2021/08/28 02:32:02;;;;;;;4.88;2.10;;;;;;;16.12;55.78;98632.06;5116018;28;20149;-52
2021/08/28 02:34:32;;;;;;;18.88;3.92;;;;;;;16.03;56.12;98634.25;5097624;28;20051;-52
2021/08/28 02:37:00;;;;;;;6.20;2.33;;;;;;;16.06;56.08;98633.81;5116202;28;20073;-52
2021/08/28 02:39:27;;;;;;;8.98;4.78;;;;;;;15.98;56.21;98629.69;5115835;28;20100;-52
2021/08/28 02:41:55;;;;;;;10.43;3.55;;;;;;;15.92;56.70;98635.13;5115767;28;20016;-52
2021/08/28 02:44:22;;;;;;;13.80;3.97;;;;;;;15.96;56.54;98637.06;5097431;28;20084;-52
2021/08/28 02:46:49;;;;;;;8.60;3.53;;;;;;;16.04;56.31;98627.94;5115608;28;20047;-52
2021/08/28 02:49:18;;;;;;;25.63;14.27;;;;;;;16.05;56.57;98634.81;5115699;28;20512;-53
2021/08/28 02:51:45;;;;;;;18.88;8.30;;;;;;;16.08;56.49;98636.22;5115649;28;20016;-51
2021/08/28 02:54:14;;;;;;;18.73;7.45;;;;;;;16.05;56.57;98632.19;5115836;28;20034;-52
2021/08/28 02:56:45;;;;;;;17.40;8.40;;;;;;;16.13;56.46;98631.00;5115491;28;20574;-52
2021/08/28 02:59:11;;;;;;;11.82;3.28;;;;;;;16.17;56.17;98635.56;5115480;28;20034;-52
2021/08/28 03:01:38;;;;;;;4.65;1.95;;;;;;;16.34;55.98;98632.19;5115442;28;20513;-52
2021/08/28 03:04:04;;;;;;;6.35;2.30;;;;;;;16.34;55.72;98640.13;5097045;28;20019;-52
2021/08/28 03:06:31;;;;;;;8.30;2.80;;;;;;;16.18;56.18;98639.84;5115287;28;20011;-52
2021/08/28 03:08:57;;;;;;;11.43;4.93;;;;;;;16.00;56.32;98632.09;5115208;28;20051;-51
2021/08/28 03:11:24;;;;;;;7.97;2.47;;;;;;;15.92;56.77;98621.91;5096876;28;20027;-52
2021/08/28 03:13:49;;;;;;;13.27;2.83;;;;;;;15.82;56.96;98633.09;5083722;28;20418;-52
2021/08/28 03:16:20;;;;;;;6.95;1.95;;;;;;;15.72;57.30;98638.97;5074509;28;20021;-52
2021/08/28 03:18:48;;;;;;;7.05;2.05;;;;;;;15.70;57.83;98629.66;5074230;28;20028;-52
2021/08/28 03:21:16;;;;;;;8.90;2.67;;;;;;;15.76;57.61;98639.31;5073107;28;20032;-52
2021/08/28 03:23:44;;;;;;;11.15;3.22;;;;;;;15.80;57.46;98639.66;5074394;28;20032;-52
2021/08/28 03:26:10;;;;;;;9.23;3.50;;;;;;;15.81;57.63;98635.97;5074223;28;20027;-52
2021/08/28 03:28:36;;;;;;;15.25;8.05;;;;;;;15.75;57.65;98633.25;5074293;28;20029;-52
2021/08/28 03:31:02;;;;;;;12.68;7.43;;;;;;;15.68;57.84;98635.16;5074246;28;20017;-52
2021/08/28 03:33:28;;;;;;;10.20;5.25;;;;;;;15.66;57.82;98642.53;5074211;28;20031;-52
2021/08/28 03:35:55;;;;;;;7.93;2.45;;;;;;;15.65;58.27;98656.00;5072835;28;20029;-52
2021/08/28 03:38:21;;;;;;;9.60;2.08;;;;;;;15.61;58.25;98644.28;5074193;28;20024;-52
2021/08/28 03:40:47;;;;;;;10.95;3.58;;;;;;;15.57;58.42;98649.22;5074028;28;20307;-52
2021/08/28 03:43:13;;;;;;;7.95;2.20;;;;;;;15.51;58.51;98647.50;5072737;28;20379;-52
2021/08/28 03:45:40;;;;;;;7.00;2.20;;;;;;;15.50;58.50;98645.91;5072600;28;20054;-52
2021/08/28 03:48:07;;;;;;;10.40;2.63;;;;;;;15.41;58.78;98640.16;5072596;28;20025;-52
2021/08/28 03:50:33;;;;;;;9.13;2.75;;;;;;;15.40;59.17;98648.34;5073910;28;20074;-52
2021/08/28 03:52:59;;;;;;;10.48;2.95;;;;;;;15.43;59.02;98643.38;5073804;28;20453;-52
2021/08/28 03:55:24;;;;;;;9.95;2.90;;;;;;;15.47;59.15;98641.88;5072515;28;20031;-52
2021/08/28 03:57:50;;;;;;;13.00;3.70;;;;;;;15.54;58.81;98639.13;5072466;28;20490;-52
2021/08/28 04:00:19;;;;;;;8.32;2.35;;;;;;;15.49;58.45;98637.19;5073797;28;20013;-52
2021/08/28 04:02:44;;;;;;;6.55;2.40;;;;;;;15.34;58.83;98640.28;5073772;28;20063;-52
2021/08/28 04:05:10;;;;;;;6.72;2.10;;;;;;;15.22;59.56;98642.16;5073585;28;20052;-52
2021/08/28 04:07:39;;;;;;;4.00;1.98;;;;;;;15.23;59.65;98635.84;5072270;28;20119;-52
2021/08/28 04:10:06;;;;;;;5.25;1.70;;;;;;;15.22;59.38;98644.78;5073523;28;20531;-52
2021/08/28 04:12:32;;;;;;;6.05;2.38;;;;;;;15.10;59.55;98638.72;5073507;28;20107;-52
2021/08/28 04:14:58;;;;;;;11.93;2.80;;;;;;;15.06;59.79;98648.16;5111393;28;20073;-51
2021/08/28 04:17:24;;;;;;;11.65;7.72;;;;;;;14.98;59.98;98642.16;5113971;28;20023;-52
2021/08/28 04:19:50;;;;;;;6.03;3.35;;;;;;;14.97;60.06;98645.84;5113955;28;20027;-52
2021/08/28 04:22:16;;;;;;;8.15;3.85;;;;;;;14.89;60.35;98638.25;5095574;28;20020;-52
2021/08/28 04:24:41;;;;;;;19.70;3.40;;;;;;;14.86;60.72;98643.19;5113712;28;20081;-51
2021/08/28 04:27:07;;;;;;;8.32;2.35;;;;;;;14.90;60.68;98650.44;5113777;28;20016;-52
2021/08/28 04:29:33;;;;;;;173.18;129.48;;;;;;;14.93;60.41;98638.59;5113025;28;20446;-52
2021/08/28 04:31:59;;;;;;;53.60;42.30;;;;;;;14.88;60.67;98646.41;5113624;28;20024;-52
2021/08/28 04:34:24;;;;;;;14.80;5.05;;;;;;;14.90;60.78;98649.63;5113661;28;20106;-51
2021/08/28 04:36:50;;;;;;;9.27;2.15;;;;;;;14.91;60.85;98654.69;5113555;28;20016;-52
2021/08/28 04:39:16;;;;;;;12.50;4.93;;;;;;;14.87;60.82;98647.44;5095455;28;20042;-51
2021/08/28 04:41:41;;;;;;;11.77;3.35;;;;;;;14.87;61.36;98656.19;5113486;28;20020;-52
2021/08/28 04:44:07;;;;;;;6.35;2.35;;;;;;;15.06;61.03;98646.28;5095159;28;20027;-51
2021/08/28 04:46:33;;;;;;;25.08;9.27;;;;;;;15.22;60.94;98658.00;5094970;28;20023;-52
2021/08/28 04:48:58;;;;;;;12.05;3.47;;;;;;;15.54;60.08;98660.28;5113357;28;20149;-52
2021/08/28 04:51:24;;;;;;;14.68;3.67;;;;;;;15.80;59.16;98655.53;5094918;28;20016;-52
2021/08/28 04:53:50;;;;;;;6.90;2.22;;;;;;;15.88;58.70;98655.16;5094935;28;20023;-52
2021/08/28 04:56:16;;;;;;;11.45;2.83;;;;;;;15.91;58.32;98657.31;5095167;28;20028;-52
2021/08/28 04:58:41;;;;;;;12.48;2.58;;;;;;;15.75;58.64;98661.50;5113162;28;20485;-52
2021/08/28 05:01:07;;;;;;;17.35;13.98;;;;;;;15.62;59.12;98665.22;5113160;28;20016;-52
2021/08/28 05:03:33;;;;;;;15.65;3.03;;;;;;;15.69;59.22;98665.88;5113110;28;20135;-52
2021/08/28 05:05:58;;;;;;;8.80;3.05;;;;;;;15.67;59.18;98667.94;5112894;28;20512;-52
2021/08/28 05:08:24;;;;;;;7.47;2.40;;;;;;;15.65;59.32;98667.38;5113006;28;20429;-51
2021/08/28 05:10:50;;;;;;;8.32;2.58;;;;;;;15.68;59.33;98664.28;5112872;28;20153;-52
2021/08/28 05:13:16;;;;;;;10.70;4.00;;;;;;;15.82;59.27;98666.69;5086267;28;20556;-52
2021/08/28 05:15:41;;;;;;;271.75;242.98;;;;;;;16.15;58.62;98666.78;5070932;28;20119;-51
2021/08/28 05:18:07;;;;;;;588.50;530.38;;;;;;;16.37;57.92;98674.06;5072155;28;20386;-52
2021/08/28 05:20:33;;;;;;;850.85;697.42;;;;;;;16.40;57.66;98673.59;5072107;28;20046;-51
2021/08/28 05:22:59;;;;;;;707.05;630.28;;;;;;;16.47;57.56;98681.38;5072064;28;20033;-52
2021/08/28 05:25:25;;;;;;;163.98;140.57;;;;;;;16.53;56.95;98678.56;5071991;28;20494;-51
2021/08/28 05:27:52;;;;;;;56.63;47.58;;;;;;;16.74;56.81;98677.09;5071974;28;20050;-52
2021/08/28 05:30:18;;;;;;;91.97;81.90;;;;;;;17.07;55.87;98670.19;5072069;28;20032;-51
2021/08/28 05:32:44;;;;;;;49.30;34.47;;;;;;;17.28;55.26;98671.25;5070637;28;20130;-51
2021/08/28 05:35:11;;;;;;;19.38;4.60;;;;;;;17.53;54.15;98684.09;5071933;28;20043;-51
2021/08/28 05:37:37;;;;;;;34.63;19.20;;;;;;;17.29;54.51;98675.53;5071959;28;20024;-51
2021/08/28 05:40:06;;;;;;;5.93;3.15;;;;;;;17.20;54.67;98684.16;5071927;28;20032;-52
2021/08/28 05:42:32;;;;;;;18.63;8.02;;;;;;;17.17;55.07;98682.78;5071843;28;20021;-51
2021/08/28 05:44:58;;;;;;;7.65;2.67;;;;;;;17.25;54.77;98679.72;5071776;28;20024;-52
2021/08/28 05:47:24;;;;;;;9.93;2.13;;;;;;;17.31;54.55;98681.41;5071828;28;20394;-52
2021/08/28 05:49:50;;;;;;;8.35;2.53;;;;;;;17.26;54.23;98688.47;5071810;28;20075;-51
2021/08/28 05:52:15;;;;;;;7.05;2.20;;;;;;;17.23;54.74;98687.13;5070438;28;20020;-51
2021/08/28 05:54:41;;;;;;;8.13;3.97;;;;;;;17.19;54.38;98686.00;5071745;28;20441;-51
2021/08/28 05:57:07;;;;;;;11.15;2.55;;;;;;;17.16;55.13;98687.31;5072038;28;20395;-52
2021/08/28 05:59:32;;;;;;;9.52;5.85;;;;;;;17.54;54.08;98687.53;5071713;28;20032;-51
2021/08/28 06:02:01;;;;;;;17.15;6.68;;;;;;;17.82;53.28;98689.22;5071746;28;20082;-52
2021/08/28 06:04:26;;;;;;;6.82;2.53;;;;;;;18.08;52.72;98685.03;5071911;28;20429;-51
2021/08/28 06:06:52;;;;;;;21.10;5.22;;;;;;;18.34;52.31;98677.31;5070165;28;20017;-50
2021/08/28 06:09:18;;;;;;;11.68;4.63;;;;;;;18.27;52.09;98680.19;5070238;28;20040;-50
2021/08/28 06:11:43;;;;;;;16.38;4.85;;;;;;;18.37;51.76;98690.09;5071577;28;20027;-49
2021/08/28 06:14:09;;;;;;;6.88;2.13;;;;;;;18.07;51.87;98693.22;5095612;28;20413;-49
2021/08/28 06:16:35;;;;;;;8.30;1.98;;;;;;;17.93;52.23;98692.84;5112031;28;20422;-49
2021/08/28 06:19:01;;;;;;;8.50;2.70;;;;;;;17.80;52.69;98691.31;5112058;28;20024;-49
2021/08/28 06:21:27;;;;;;;11.68;2.78;;;;;;;17.61;53.01;98698.00;5111970;28;20062;-49
2021/08/28 06:23:53;;;;;;;10.48;3.22;;;;;;;17.41;53.75;98701.97;5093717;28;20019;-49
2021/08/28 06:26:18;;;;;;;26.27;22.15;;;;;;;17.38;53.59;98694.47;5111881;28;20024;-49
2021/08/28 06:28:44;;;;;;;6.03;2.65;;;;;;;17.43;53.45;98704.38;5111936;28;20378;-49
2021/08/28 06:31:10;;;;;;;5.10;2.30;;;;;;;17.43;53.77;98704.38;5112003;28;20431;-50
2021/08/28 06:33:36;;;;;;;38.88;30.55;;;;;;;17.50;53.44;98705.00;5111916;28;20031;-49
2021/08/28 06:36:02;;;;;;;293.50;214.68;;;;;;;17.44;53.84;98708.63;5110594;28;20119;-49
2021/08/28 06:38:31;;;;;;;190.18;172.50;;;;;;;17.42;54.18;98706.22;5110531;28;20023;-49
2021/08/28 06:41:04;;;;;;;76.32;68.50;;;;;;;17.66;53.88;98717.41;5111878;28;20024;-49
2021/08/28 06:43:30;;;;;;;794.63;637.08;;;;;;;17.84;53.30;98713.69;5111771;28;20509;-51
2021/08/28 06:45:57;;;;;;;161.30;145.45;;;;;;;17.86;53.26;98721.41;5111719;28;20157;-51
2021/08/28 06:48:22;;;;;;;37.35;33.47;;;;;;;17.88;52.40;98716.66;5110490;28;20023;-51
2021/08/28 06:50:48;;;;;;;16.13;14.48;;;;;;;17.95;52.71;98712.78;5110387;28;20054;-49
2021/08/28 06:53:15;;;;;;;9.90;5.47;;;;;;;18.09;51.80;98713.19;5113406;28;20109;-49
2021/08/28 06:55:41;;;;;;;6.13;2.53;;;;;;;18.29;51.82;98715.28;5115544;28;20480;-49
2021/08/28 06:58:07;;;;;;;6.05;2.70;;;;;;;18.57;50.94;98705.44;5115555;28;20015;-49
2021/08/28 07:00:32;;;;;;;12.32;4.38;;;;;;;19.00;50.08;98706.38;5097111;28;20031;-49
2021/08/28 07:02:58;;;;;;;6.00;3.08;;;;;;;19.91;47.98;98701.84;5115508;28;20104;-49
2021/08/28 07:05:24;;;;;;;11.90;2.17;;;;;;;21.83;44.33;98689.03;5115281;28;20081;-49
2021/08/28 07:07:50;;;;;;;5.90;2.47;;;;;;;23.31;40.94;98697.91;5115403;28;20015;-49
2021/08/28 07:10:16;;;;;;;11.88;4.35;;;;;;;24.09;39.54;98682.56;5115291;28;20023;-50
2021/08/28 07:12:42;;;;;;;6.85;2.67;;;;;;;24.37;38.56;98696.09;5096865;28;20096;-50
2021/08/28 07:15:08;;;;;;;15.60;5.60;;;;;;;24.80;37.77;98688.75;5115039;28;20067;-50
2021/08/28 07:17:34;;;;;;;8.30;4.57;;;;;;;24.52;37.28;98693.22;5115178;28;20023;-49
2021/08/28 07:20:00;;;;;;;8.45;3.38;;;;;;;23.50;38.76;98695.28;5096769;28;20458;-50
2021/08/28 07:22:25;;;;;;;10.30;4.53;;;;;;;22.51;40.85;98688.41;5096737;28;20020;-50
2021/08/28 07:24:51;;;;;;;6.07;2.92;;;;;;;22.32;41.44;98698.97;5114993;28;20111;-50
2021/08/28 07:27:17;;;;;;;3.88;2.40;;;;;;;23.88;38.70;98695.41;5114968;28;20047;-50
2021/08/28 07:29:43;;;;;;;5.47;2.40;;;;;;;24.80;36.75;98696.00;5114945;28;20020;-49
2021/08/28 07:32:10;;;;;;;6.38;3.13;;;;;;;23.92;38.24;98696.44;5114907;28;20034;-49
2021/08/28 07:34:36;;;;;;;7.80;3.72;;;;;;;24.51;37.59;98697.78;5114775;28;20493;-49
2021/08/28 07:37:06;;;;;;;14.73;9.95;;;;;;;24.97;36.68;98692.75;5114721;28;20028;-49
2021/08/28 07:39:32;;;;;;;44.35;40.63;;;;;;;25.13;36.50;98702.13;5114705;28;20099;-49
2021/08/28 07:41:58;;;;;;;9.50;3.42;;;;;;;25.00;36.20;98692.97;5096406;28;20102;-49
2021/08/28 07:44:23;;;;;;;11.98;2.78;;;;;;;24.71;36.83;98695.88;5114668;28;20043;-49
2021/08/28 07:46:49;;;;;;;4.10;2.22;;;;;;;25.30;35.88;98688.97;5114486;28;20031;-48
2021/08/28 07:49:18;;;;;;;12.93;4.15;;;;;;;24.89;36.16;98696.91;5096306;28;20559;-49
2021/08/28 07:51:43;;;;;;;7.85;4.30;;;;;;;25.67;35.87;98689.06;5114475;28;20024;-49
2021/08/28 07:54:09;;;;;;;7.38;4.65;;;;;;;27.72;32.37;98686.09;5114440;28;20023;-50
2021/08/28 07:56:35;;;;;;;9.05;3.25;;;;;;;29.37;29.73;98690.63;5114421;28;20028;-50
2021/08/28 07:59:01;;;;;;;6.63;1.90;;;;;;;30.45;28.14;98690.91;5114375;28;20027;-49
2021/08/28 08:01:26;;;;;;;3.72;1.60;;;;;;;31.34;26.53;98680.75;5114313;28;20023;-49
2021/08/28 08:03:52;;;;;;;5.43;1.92;;;;;;;31.81;25.57;98685.72;5095287;28;20027;-50
2021/08/28 08:06:18;;;;;;;5.05;3.65;;;;;;;31.96;24.53;98682.31;5113734;28;20110;-50
2021/08/28 08:08:45;;;;;;;6.40;1.65;;;;;;;32.19;24.21;98682.59;5095825;28;20056;-50
2021/08/28 08:11:15;;;;;;;8.57;2.00;;;;;;;31.98;24.74;98679.28;5114134;28;20031;-50
2021/08/28 08:13:42;;;;;;;3.08;1.70;;;;;;;32.00;24.65;98690.59;5113776;28;20123;-50
2021/08/28 08:16:07;;;;;;;4.25;1.90;;;;;;;32.06;25.00;98681.09;5114073;28;20035;-50
2021/08/28 08:18:34;;;;;;;3.70;1.77;;;;;;;32.29;23.98;98686.78;5114290;28;20023;-50
2021/08/28 08:21:00;;;;;;;1.90;1.40;;;;;;;32.43;23.95;98676.28;5095580;28;20035;-50
2021/08/28 08:23:25;;;;;;;8.50;1.67;;;;;;;32.53;23.68;98675.00;5113907;28;20023;-50
2021/08/28 08:25:51;;;;;;;5.15;1.85;;;;;;;32.63;23.69;98685.41;5113757;28;20073;-50
2021/08/28 08:28:17;;;;;;;4.68;3.15;;;;;;;32.07;24.24;98681.88;5095496;28;20027;-50
2021/08/28 08:30:44;;;;;;;5.28;1.60;;;;;;;32.10;23.99;98679.25;5113875;28;20048;-50
2021/08/28 08:33:10;;;;;;;3.22;1.70;;;;;;;31.73;23.94;98675.78;5113772;28;20094;-50
2021/08/28 08:35:36;;;;;;;8.10;1.65;;;;;;;31.27;24.97;98684.06;5113598;28;20027;-50
2021/08/28 08:38:02;;;;;;;6.13;4.03;;;;;;;31.55;24.71;98680.66;5113617;28;20092;-50
2021/08/28 08:40:30;;;;;;;29.67;26.58;;;;;;;31.85;24.84;98673.88;5113596;28;20110;-50
2021/08/28 08:42:59;;;;;;;7.40;3.35;;;;;;;31.90;24.81;98667.41;5113867;28;20068;-50
2021/08/28 08:45:28;;;;;;;5.15;1.67;;;;;;;31.70;24.75;98677.28;5113620;28;20112;-50
2021/08/28 08:47:55;;;;;;;11.05;2.88;;;;;;;31.80;25.13;98668.66;5113778;28;20085;-50
2021/08/28 08:50:22;;;;;;;5.40;2.20;;;;;;;32.34;24.63;98681.09;5113339;28;20028;-50
2021/08/28 08:52:53;;;;;;;5.38;3.63;;;;;;;32.69;24.10;98671.56;5113408;28;20049;-50
2021/08/28 08:55:19;;;;;;;8.88;2.25;;;;;;;32.77;23.72;98676.06;5095048;28;20042;-47
2021/08/28 08:57:46;;;;;;;3.42;1.85;;;;;;;32.76;24.01;98677.19;5094922;28;20553;-48
2021/08/28 09:00:14;;;;;;;5.90;2.60;;;;;;;32.70;23.36;98673.16;5113184;28;20378;-50
2021/08/28 09:02:40;;;;;;;4.90;2.40;;;;;;;32.69;23.70;98683.22;5113079;28;20092;-50
2021/08/28 09:05:06;;;;;;;4.57;1.73;;;;;;;32.82;23.85;98681.22;5113056;28;20031;-50
2021/08/28 09:07:32;;;;;;;3.72;1.17;;;;;;;33.07;23.68;98683.81;5113076;28;20129;-50
2021/08/28 09:09:58;;;;;;;2.97;1.27;;;;;;;32.82;23.75;98683.94;5094888;28;20020;-50
2021/08/28 09:12:35;;;;;;;6.22;2.00;;;;;;;33.04;23.55;98683.38;5112940;28;20123;-50
2021/08/28 09:15:01;;;;;;;5.65;1.70;;;;;;;33.38;23.54;98681.13;5112219;28;20144;-50
2021/08/28 09:17:27;;;;;;;3.85;1.45;;;;;;;33.93;22.72;98680.41;5112723;28;20031;-50
2021/08/28 09:19:53;;;;;;;15.35;11.27;;;;;;;34.12;22.63;98676.91;5112839;28;20028;-50
2021/08/28 09:22:28;;;;;;;2.78;2.25;;;;;;;34.37;22.07;98675.50;5112741;28;20035;-50
2021/08/28 09:25:03;;;;;;;5.38;1.40;;;;;;;34.19;21.73;98677.88;5094440;28;20049;-50
2021/08/28 09:27:45;;;;;;;9.48;2.08;;;;;;;34.21;22.29;98674.81;5078183;28;20039;-50
2021/08/28 09:30:16;;;;;;;65.88;46.65;;;;;;;34.26;21.95;98662.81;5112586;28;20027;-50
2021/08/28 09:33:03;;;;;;;9.93;3.65;;;;;;;33.91;21.56;98672.59;5111292;28;20023;-50
2021/08/28 09:35:31;;;;;;;5.13;1.48;;;;;;;33.70;21.92;98670.19;5112567;28;20116;-50
2021/08/28 09:38:01;;;;;;;5.82;1.98;;;;;;;33.61;22.10;98678.56;5112533;28;20020;-50
2021/08/28 09:40:35;;;;;;;6.50;2.15;;;;;;;33.54;22.51;98677.56;5112470;28;20096;-50
2021/08/28 09:43:05;;;;;;;11.32;2.30;;;;;;;33.42;22.87;98668.38;5112530;28;20019;-50
2021/08/28 09:45:31;;;;;;;12.07;2.10;;;;;;;33.19;23.28;98672.88;5112344;28;20382;-50
2021/08/28 09:47:57;;;;;;;7.15;1.50;;;;;;;32.91;23.63;98676.44;5112453;28;20038;-50
2021/08/28 09:50:36;;;;;;;3.00;1.23;;;;;;;33.09;22.90;98676.13;5112335;28;20068;-50
2021/08/28 09:53:13;;;;;;;3.00;1.60;;;;;;;32.72;22.97;98663.53;5112517;28;20027;-50
2021/08/28 09:55:42;;;;;;;5.35;1.77;;;;;;;32.77;23.61;98670.63;5094036;28;20038;-50
2021/08/28 09:58:09;;;;;;;3.75;1.55;;;;;;;33.11;23.15;98671.13;5112277;28;20410;-47
2021/08/28 10:00:44;;;;;;;3.65;1.70;;;;;;;33.33;23.18;98664.28;5112199;28;20024;-47
2021/08/28 10:03:11;;;;;;;12.75;3.10;;;;;;;33.07;23.13;98662.06;5112411;28;20093;-48
2021/08/28 10:05:39;;;;;;;6.00;1.52;;;;;;;32.67;23.74;98663.78;5112095;28;20020;-50
2021/08/28 10:08:08;;;;;;;6.72;1.70;;;;;;;32.28;24.32;98668.91;5112430;28;20027;-50
2021/08/28 10:10:38;;;;;;;5.18;1.40;;;;;;;32.22;24.66;98676.50;5112064;28;20024;-50
2021/08/28 10:13:07;;;;;;;4.50;1.27;;;;;;;32.33;24.54;98671.38;5093337;28;20058;-50
2021/08/28 10:15:36;;;;;;;7.88;1.60;;;;;;;32.53;24.04;98663.38;5093857;28;20039;-50
2021/08/28 10:18:05;;;;;;;6.43;1.40;;;;;;;32.65;23.58;98663.31;5112054;28;20500;-50
2021/08/28 10:20:31;;;;;;;6.85;1.40;;;;;;;32.98;23.48;98664.94;5093673;28;20053;-50
2021/08/28 10:23:04;;;;;;;4.03;1.60;;;;;;;32.70;23.76;98665.81;5112092;28;20024;-50
2021/08/28 10:25:32;;;;;;;3.67;1.25;;;;;;;32.27;24.20;98674.69;5093547;28;20094;-50
2021/08/28 10:28:01;;;;;;;4.30;1.30;;;;;;;32.04;24.29;98680.63;5094987;28;20046;-50
2021/08/28 10:30:28;;;;;;;3.05;1.48;;;;;;;32.13;24.35;98675.06;5115993;28;20019;-50
2021/08/28 10:32:54;;;;;;;2.22;1.10;;;;;;;32.28;23.73;98670.81;5116102;28;20012;-50
2021/08/28 10:35:22;;;;;;;3.97;1.75;;;;;;;32.60;23.45;98669.03;5115942;28;20031;-50
2021/08/28 10:37:48;;;;;;;4.18;1.67;;;;;;;32.84;23.78;98666.16;5097588;28;20103;-49
2021/08/28 10:40:23;;;;;;;4.72;1.30;;;;;;;32.71;24.06;98672.81;5115911;28;20040;-50
2021/08/28 10:42:51;;;;;;;7.72;1.30;;;;;;;32.65;23.74;98649.75;5097583;28;20024;-50
2021/08/28 10:45:30;;;;;;;6.82;1.25;;;;;;;32.47;24.01;98654.66;5115706;28;20136;-50
2021/08/28 10:47:59;;;;;;;10.27;1.45;;;;;;;31.62;24.88;98670.84;5115843;28;20020;-50
2021/08/28 10:50:29;;;;;;;8.15;1.42;;;;;;;31.29;25.73;98672.84;5115659;28;20024;-50
2021/08/28 10:52:58;;;;;;;8.00;2.85;;;;;;;31.61;25.30;98666.56;5115670;28;20031;-50
2021/08/28 10:55:39;;;;;;;6.90;1.70;;;;;;;31.95;24.86;98666.38;5115614;28;20434;-50
2021/08/28 10:58:20;;;;;;;6.15;1.67;;;;;;;31.98;25.17;98661.03;5115649;28;20111;-50
2021/08/28 11:00:49;;;;;;;3.17;1.15;;;;;;;31.87;25.02;98665.34;5115624;28;20031;-49
2021/08/28 11:03:29;;;;;;;6.18;1.85;;;;;;;32.19;25.10;98651.97;5115505;28;20389;-50
2021/08/28 11:06:13;;;;;;;2.22;0.93;;;;;;;32.00;25.15;98655.31;5115308;28;20088;-50
2021/08/28 11:08:55;;;;;;;9.73;1.90;;;;;;;32.09;24.74;98655.94;5115404;28;20034;-50
2021/08/28 11:11:21;;;;;;;4.07;1.40;;;;;;;32.09;24.87;98655.16;5115283;28;20032;-50
2021/08/28 11:14:36;;;;;;;8.55;1.40;;;;;;;32.12;24.86;98657.97;5114836;28;20040;-50
2021/08/28 11:17:02;;;;;;;7.38;2.30;;;;;;;31.77;25.05;98653.03;5062615;28;20114;-50
2021/08/28 11:19:34;;;;;;;4.40;1.45;;;;;;;31.58;25.29;98663.72;5096848;28;20472;-50
2021/08/28 11:22:05;;;;;;;6.18;1.33;;;;;;;31.71;25.71;98661.78;5115129;28;20032;-50
2021/08/28 11:24:34;;;;;;;5.38;3.08;;;;;;;31.80;25.46;98648.88;5097080;28;20453;-50
2021/08/28 11:27:04;;;;;;;5.50;2.00;;;;;;;32.04;25.23;98654.28;5114961;28;20015;-50
2021/08/28 11:29:33;;;;;;;4.18;1.27;;;;;;;32.36;24.56;98651.66;5114962;28;20084;-50
2021/08/28 11:32:12;;;;;;;6.43;0.98;;;;;;;32.32;24.29;98650.78;5114844;28;20114;-50
2021/08/28 11:34:41;;;;;;;6.85;1.40;;;;;;;32.00;24.65;98658.81;5114900;28;20027;-50